createdAt,value
2023-04-05T00:00:22.912Z,75.05
2023-04-05T00:02:49.656Z,75.13
2023-04-05T00:05:29.393Z,75.04
2023-04-05T00:08:00.762Z,75.23
2023-04-05T00:10:28.504Z,75.50
2023-04-05T00:12:55.842Z,75.71
2023-04-05T00:15:23.033Z,76.21
2023-04-05T00:17:50.014Z,76.49
2023-04-05T00:20:16.818Z,75.96
2023-04-05T00:22:44.954Z,76.59
2023-04-05T00:25:12.022Z,76.78
2023-04-05T00:27:39.851Z,77.47
2023-04-05T00:30:07.142Z,76.91
2023-04-05T00:32:33.820Z,77.01
2023-04-05T00:35:00.965Z,77.16
2023-04-05T00:37:27.714Z,76.28
2023-04-05T00:39:55.149Z,76.81
2023-04-05T00:42:21.818Z,76.92
2023-04-05T00:44:48.584Z,76.99
2023-04-05T00:47:15.401Z,77.62
2023-04-05T00:49:42.037Z,77.55
2023-04-05T00:52:08.762Z,77.85
2023-04-05T00:54:35.827Z,77.55
2023-04-05T00:57:02.580Z,77.67
2023-04-05T00:59:29.421Z,77.12
2023-04-05T01:02:01.738Z,77.28
2023-04-05T01:04:32.065Z,77.61
2023-04-05T01:07:19.885Z,77.64
2023-04-05T01:09:52.838Z,77.03
2023-04-05T01:12:22.757Z,77.16
2023-04-05T01:14:54.431Z,77.78
2023-04-05T01:17:23.839Z,78.41
2023-04-05T01:20:02.381Z,78.25
2023-04-05T01:23:06.790Z,77.85
2023-04-05T01:26:01.784Z,78.26
2023-04-05T01:28:50.874Z,78.44
2023-04-05T01:31:29.293Z,78.20
2023-04-05T01:34:31.592Z,78.36
2023-04-05T01:37:02.841Z,77.91
2023-04-05T01:39:31.180Z,78.35
2023-04-05T01:42:03.509Z,78.71
2023-04-05T01:44:30.532Z,78.85
2023-04-05T01:46:57.430Z,79.33
2023-04-05T01:49:24.718Z,79.51
2023-04-05T01:51:51.624Z,79.30
2023-04-05T01:54:18.280Z,79.33
2023-04-05T01:56:44.938Z,80.19
2023-04-05T01:59:11.637Z,79.95
2023-04-05T02:01:38.398Z,80.09
2023-04-05T02:04:05.558Z,80.97
2023-04-05T02:06:32.324Z,80.83
2023-04-05T02:09:02.007Z,80.71
2023-04-05T02:11:28.782Z,81.19
2023-04-05T02:13:58.477Z,80.93
2023-04-05T02:16:27.093Z,81.36
2023-04-05T02:18:58.004Z,81.38
2023-04-05T02:21:26.159Z,81.02
2023-04-05T02:23:56.085Z,81.30
2023-04-05T02:26:22.840Z,80.72
2023-04-05T02:28:50.241Z,81.27
2023-04-05T02:31:16.916Z,81.51
2023-04-05T02:33:43.637Z,81.24
2023-04-05T02:36:12.182Z,80.99
2023-04-05T02:38:38.887Z,81.75
2023-04-05T02:41:09.307Z,81.28
2023-04-05T02:43:38.102Z,80.96
2023-04-05T02:46:04.879Z,80.81
2023-04-05T02:48:34.407Z,81.43
2023-04-05T02:51:02.737Z,81.67
2023-04-05T02:53:29.664Z,81.83
2023-04-05T02:56:00.986Z,81.92
2023-04-05T02:58:28.569Z,81.93
2023-04-05T03:00:56.310Z,82.20
2023-04-05T03:03:30.917Z,83.16
2023-04-05T03:06:01.553Z,83.36
2023-04-05T03:08:34.235Z,82.87
2023-04-05T03:11:05.050Z,83.28
2023-04-05T03:13:31.827Z,83.20
2023-04-05T03:15:58.516Z,83.37
2023-04-05T03:18:29.700Z,84.10
2023-04-05T03:21:04.550Z,84.01
2023-04-05T03:23:34.755Z,83.85
2023-04-05T03:26:03.081Z,84.52
2023-04-05T03:28:34.323Z,84.23
2023-04-05T03:31:05.146Z,84.57
2023-04-05T03:33:32.770Z,84.06
2023-04-05T03:36:00.078Z,84.07
2023-04-05T03:38:32.362Z,84.26
2023-04-05T03:41:09.919Z,84.17
2023-04-05T03:43:36.649Z,84.26
2023-04-05T03:46:03.739Z,84.42
2023-04-05T03:48:30.519Z,84.61
2023-04-05T03:50:57.333Z,84.75
2023-04-05T03:53:24.090Z,84.72
2023-04-05T03:55:55.768Z,84.65
2023-04-05T03:58:42.878Z,84.55
2023-04-05T04:01:11.471Z,84.12
2023-04-05T04:03:38.236Z,84.79
2023-04-05T04:06:06.480Z,84.49
2023-04-05T04:08:33.791Z,84.93
2023-04-05T04:11:00.970Z,84.94
2023-04-05T04:13:32.314Z,84.59
2023-04-05T04:16:04.096Z,84.45
2023-04-05T04:18:37.709Z,84.63
2023-04-05T04:21:25.077Z,85.12
2023-04-05T04:24:18.705Z,85.25
2023-04-05T04:27:10.729Z,85.46
2023-04-05T04:30:01.840Z,85.21
2023-04-05T04:32:53.816Z,85.76
2023-04-05T04:35:46.766Z,85.79
2023-04-05T04:38:20.694Z,85.62
2023-04-05T04:41:12.581Z,85.77
2023-04-05T04:43:58.779Z,85.10
2023-04-05T04:46:34.988Z,85.19
2023-04-05T04:49:13.402Z,85.52
2023-04-05T04:51:46.178Z,84.79
2023-04-05T04:54:13.217Z,84.70
2023-04-05T04:56:41.245Z,84.69
2023-04-05T04:59:07.945Z,84.58
2023-04-05T05:01:34.660Z,85.01
2023-04-05T05:04:04.155Z,85.00
2023-04-05T05:06:34.538Z,84.66
2023-04-05T05:09:01.408Z,84.54
2023-04-05T05:11:29.948Z,84.64
2023-04-05T05:13:57.364Z,84.23
2023-04-05T05:16:26.775Z,84.80
2023-04-05T05:18:54.252Z,84.65
2023-04-05T05:21:23.260Z,83.90
2023-04-05T05:23:53.480Z,83.75
2023-04-05T05:26:20.069Z,83.38
2023-04-05T05:28:48.886Z,82.11
2023-04-05T05:31:17.869Z,82.57
2023-04-05T05:33:49.532Z,81.89
2023-04-05T05:36:16.208Z,80.65
2023-04-05T05:38:43.643Z,79.77
2023-04-05T05:41:10.430Z,78.95
2023-04-05T05:43:37.049Z,78.53
2023-04-05T05:46:03.819Z,77.67
2023-04-05T05:48:31.001Z,76.38
2023-04-05T05:51:01.654Z,75.60
2023-04-05T05:53:28.623Z,75.86
2023-04-05T05:55:56.133Z,74.50
2023-04-05T05:58:22.801Z,74.04
2023-04-05T06:00:51.744Z,72.36
2023-04-05T06:03:19.382Z,73.15
2023-04-05T06:05:53.480Z,73.33
2023-04-05T06:08:20.220Z,72.66
2023-04-05T06:10:47.062Z,71.56
2023-04-05T06:13:13.749Z,71.74
2023-04-05T06:15:40.463Z,71.99
2023-04-05T06:18:07.161Z,72.12
2023-04-05T06:20:34.082Z,71.78
2023-04-05T06:23:00.789Z,72.47
2023-04-05T06:25:27.521Z,72.03
2023-04-05T06:27:54.198Z,71.84
2023-04-05T06:30:21.069Z,71.48
2023-04-05T06:32:48.733Z,71.25
2023-04-05T06:35:15.674Z,70.64
2023-04-05T06:37:42.441Z,70.21
2023-04-05T06:40:09.492Z,68.20
2023-04-05T06:42:36.262Z,68.17
2023-04-05T06:45:06.168Z,67.28
2023-04-05T06:47:37.465Z,65.43
2023-04-05T06:50:05.711Z,61.58
2023-04-05T06:52:32.728Z,61.94
2023-04-05T06:54:59.386Z,60.83
2023-04-05T06:57:27.068Z,60.19
2023-04-05T06:59:54.894Z,60.84
2023-04-05T07:02:21.894Z,61.18
2023-04-05T07:04:49.061Z,61.13
2023-04-05T07:07:16.848Z,60.64
2023-04-05T07:09:43.538Z,59.67
2023-04-05T07:12:10.371Z,59.19
2023-04-05T07:14:37.718Z,59.49
2023-04-05T07:17:06.480Z,59.81
2023-04-05T07:19:34.020Z,58.83
2023-04-05T07:22:01.260Z,59.00
2023-04-05T07:24:27.988Z,58.83
2023-04-05T07:26:54.695Z,58.40
2023-04-05T07:29:21.320Z,58.73
2023-04-05T07:31:48.092Z,58.31
2023-04-05T07:34:14.751Z,57.65
2023-04-05T07:36:41.901Z,56.43
2023-04-05T07:39:08.591Z,54.97
2023-04-05T07:41:38.242Z,56.98
2023-04-05T07:44:04.937Z,57.05
2023-04-05T07:46:31.647Z,56.04
2023-04-05T07:48:58.474Z,56.27
2023-04-05T07:51:26.445Z,56.13
2023-04-05T07:53:53.093Z,55.82
2023-04-05T07:56:19.706Z,55.78
2023-04-05T07:58:47.620Z,54.06
2023-04-05T08:01:14.262Z,54.69
2023-04-05T08:03:41.038Z,55.35
2023-04-05T08:06:13.233Z,55.94
2023-04-05T08:08:41.272Z,55.88
2023-04-05T08:11:07.958Z,55.38
2023-04-05T08:13:34.717Z,54.77
2023-04-05T08:16:02.244Z,56.46
2023-04-05T08:18:29.097Z,55.90
2023-04-05T08:20:56.764Z,55.18
2023-04-05T08:23:23.602Z,54.38
2023-04-05T08:25:50.272Z,54.01
2023-04-05T08:28:17.248Z,53.46
2023-04-05T08:30:43.973Z,53.26
2023-04-05T08:33:10.947Z,50.69
2023-04-05T08:35:39.030Z,50.41
2023-04-05T08:38:07.143Z,51.99
2023-04-05T08:40:42.950Z,50.76
2023-04-05T08:43:28.420Z,49.72
2023-04-05T08:45:58.943Z,48.72
2023-04-05T08:48:29.025Z,49.15
2023-04-05T08:50:55.960Z,48.21
2023-04-05T08:53:22.962Z,48.21
2023-04-05T08:55:54.359Z,46.76
2023-04-05T08:58:22.406Z,46.90
2023-04-05T09:00:50.817Z,46.48
2023-04-05T09:03:35.398Z,47.11
2023-04-05T09:06:07.337Z,45.32
2023-04-05T09:08:34.500Z,46.24
2023-04-05T09:11:01.154Z,46.30
2023-04-05T09:13:27.801Z,43.68
2023-04-05T09:15:54.945Z,46.45
2023-04-05T09:18:26.957Z,46.97
2023-04-05T09:21:05.647Z,48.65
2023-04-05T09:23:35.028Z,46.59
2023-04-05T09:26:17.655Z,47.65
2023-04-05T09:28:44.243Z,43.27
2023-04-05T09:31:29.586Z,42.25
2023-04-05T09:33:59.465Z,41.95
2023-04-05T09:36:26.400Z,41.09
2023-04-05T09:38:53.025Z,41.01
2023-04-05T09:41:19.701Z,43.14
2023-04-05T09:43:46.344Z,43.45
2023-04-05T09:46:34.078Z,43.47
2023-04-05T09:49:01.825Z,41.88
2023-04-05T09:51:36.331Z,42.39
2023-04-05T09:54:10.487Z,40.29
2023-04-05T09:56:42.007Z,38.26
2023-04-05T09:59:12.509Z,38.78
2023-04-05T10:01:44.024Z,36.95
2023-04-05T10:04:11.142Z,37.16
2023-04-05T10:06:40.041Z,37.65
2023-04-05T10:09:09.088Z,37.36
2023-04-05T10:11:37.591Z,38.82
2023-04-05T10:14:06.394Z,38.82
2023-04-05T10:16:38.193Z,38.90
2023-04-05T10:19:12.934Z,37.57
2023-04-05T10:21:43.363Z,39.74
2023-04-05T10:24:34.898Z,40.17
2023-04-05T10:27:08.956Z,39.45
2023-04-05T10:29:47.761Z,36.38
2023-04-05T10:32:23.507Z,37.00
2023-04-05T10:35:00.873Z,37.58
2023-04-05T10:37:59.289Z,38.42
2023-04-05T10:40:30.551Z,37.33
2023-04-05T10:42:57.348Z,37.36
2023-04-05T10:45:25.711Z,36.84
2023-04-05T10:48:05.374Z,38.09
2023-04-05T10:50:32.879Z,38.63
2023-04-05T10:53:00.527Z,37.85
2023-04-05T10:55:28.095Z,38.36
2023-04-05T10:57:55.869Z,37.54
2023-04-05T11:00:23.777Z,37.68
2023-04-05T11:02:55.969Z,38.08
2023-04-05T11:05:32.835Z,38.70
2023-04-05T11:08:11.633Z,36.92
2023-04-05T11:10:39.885Z,36.45
2023-04-05T11:13:08.290Z,35.88
2023-04-05T11:15:35.744Z,36.24
2023-04-05T11:18:06.643Z,37.03
2023-04-05T11:20:52.942Z,36.81
2023-04-05T11:23:21.695Z,36.33
2023-04-05T11:25:52.799Z,36.37
2023-04-05T11:28:25.077Z,36.16
2023-04-05T11:30:53.046Z,36.34
2023-04-05T11:33:55.420Z,35.00
2023-04-05T11:36:31.951Z,35.27
2023-04-05T11:39:23.780Z,33.22
2023-04-05T11:42:12.325Z,35.89
2023-04-05T11:44:46.649Z,35.00
2023-04-05T11:47:14.180Z,35.56
2023-04-05T11:49:42.441Z,35.61
2023-04-05T11:52:18.409Z,36.14
2023-04-05T11:54:46.757Z,36.17
2023-04-05T11:57:22.785Z,35.86
2023-04-05T11:59:53.577Z,36.62
2023-04-05T12:02:21.058Z,36.51
2023-04-05T12:04:56.366Z,35.60
2023-04-05T12:07:26.532Z,35.29
2023-04-05T12:10:08.628Z,35.80
2023-04-05T12:12:40.943Z,36.39
2023-04-05T12:15:09.030Z,36.02
2023-04-05T12:17:49.989Z,35.79
2023-04-05T12:20:19.519Z,35.36
2023-04-05T12:22:48.832Z,34.13
2023-04-05T12:25:16.886Z,34.53
2023-04-05T12:27:44.091Z,34.55
2023-04-05T12:30:22.563Z,34.28
2023-04-05T12:32:57.460Z,34.80
2023-04-05T12:35:32.779Z,35.68
2023-04-05T12:38:00.968Z,34.13
2023-04-05T12:40:28.309Z,34.51
2023-04-05T12:43:01.790Z,34.82
2023-04-05T12:45:28.430Z,35.60
2023-04-05T12:47:59.961Z,35.10
2023-04-05T12:50:31.572Z,34.86
2023-04-05T12:52:59.239Z,36.19
2023-04-05T12:55:27.670Z,35.82
2023-04-05T12:57:56.438Z,36.09
2023-04-05T13:00:26.706Z,35.35
2023-04-05T13:02:57.959Z,35.30
2023-04-05T13:05:29.385Z,34.92
2023-04-05T13:07:56.377Z,35.09
2023-04-05T13:10:25.144Z,34.06
2023-04-05T13:12:52.335Z,33.53
2023-04-05T13:15:19.374Z,33.75
2023-04-05T13:17:49.864Z,34.45
2023-04-05T13:20:17.949Z,34.62
2023-04-05T13:22:46.061Z,34.71
2023-04-05T13:25:13.434Z,34.21
2023-04-05T13:27:40.549Z,32.67
2023-04-05T13:30:07.757Z,33.89
2023-04-05T13:32:34.733Z,34.60
2023-04-05T13:35:01.391Z,35.23
2023-04-05T13:37:28.103Z,35.02
2023-04-05T13:39:54.785Z,33.85
2023-04-05T13:42:22.555Z,32.76
2023-04-05T13:44:49.349Z,34.16
2023-04-05T13:47:16.331Z,34.41
2023-04-05T13:49:44.232Z,34.87
2023-04-05T13:52:11.507Z,32.87
2023-04-05T13:54:38.215Z,33.47
2023-04-05T13:57:05.677Z,34.33
2023-04-05T13:59:32.582Z,33.86
2023-04-05T14:01:59.484Z,34.99
2023-04-05T14:04:26.413Z,35.62
2023-04-05T14:06:53.721Z,35.28
2023-04-05T14:09:20.444Z,35.68
2023-04-05T14:11:47.397Z,35.06
2023-04-05T14:14:14.244Z,34.94
2023-04-05T14:16:41.044Z,35.13
2023-04-05T14:19:07.714Z,34.86
2023-04-05T14:21:34.637Z,34.30
2023-04-05T14:24:01.282Z,34.21
2023-04-05T14:26:28.321Z,33.20
2023-04-05T14:28:55.054Z,34.89
2023-04-05T14:31:22.882Z,35.65
2023-04-05T14:33:49.603Z,35.75
2023-04-05T14:36:16.286Z,35.64
2023-04-05T14:38:42.965Z,36.36
2023-04-05T14:41:10.360Z,35.66
2023-04-05T14:43:40.681Z,36.73
2023-04-05T14:46:07.660Z,36.65
2023-04-05T14:48:34.515Z,36.12
2023-04-05T14:51:01.242Z,35.91
2023-04-05T14:53:28.005Z,35.29
2023-04-05T14:55:54.641Z,36.28
2023-04-05T14:58:21.328Z,36.44
2023-04-05T15:00:52.516Z,37.27
2023-04-05T15:03:19.829Z,37.14
2023-04-05T15:05:47.702Z,35.92
2023-04-05T15:08:15.609Z,36.70
2023-04-05T15:10:43.056Z,37.36
2023-04-05T15:13:10.635Z,38.21
2023-04-05T15:15:37.920Z,38.49
2023-04-05T15:18:05.680Z,38.25
2023-04-05T15:20:32.816Z,38.85
2023-04-05T15:23:00.055Z,38.98
2023-04-05T15:25:26.814Z,38.35
2023-04-05T15:27:54.877Z,38.98
2023-04-05T15:30:22.083Z,39.26
2023-04-05T15:32:48.788Z,39.88
2023-04-05T15:35:15.607Z,39.66
2023-04-05T15:37:42.672Z,40.35
2023-04-05T15:40:09.729Z,39.40
2023-04-05T15:42:36.486Z,39.72
2023-04-05T15:45:03.273Z,40.31
2023-04-05T15:47:31.053Z,39.90
2023-04-05T15:49:57.755Z,40.41
2023-04-05T15:52:24.552Z,40.33
2023-04-05T15:54:51.235Z,40.42
2023-04-05T15:57:17.905Z,40.92
2023-04-05T15:59:44.657Z,40.58
2023-04-05T16:02:11.451Z,40.91
2023-04-05T16:04:39.325Z,40.82
2023-04-05T16:07:07.762Z,40.62
2023-04-05T16:09:34.376Z,40.53
2023-04-05T16:12:01.553Z,40.52
2023-04-05T16:14:28.282Z,40.63
2023-04-05T16:16:55.033Z,41.11
2023-04-05T16:19:22.453Z,40.67
2023-04-05T16:21:49.587Z,40.94
2023-04-05T16:24:16.734Z,41.26
2023-04-05T16:26:43.338Z,41.30
2023-04-05T16:29:10.048Z,41.19
2023-04-05T16:31:37.472Z,41.31
2023-04-05T16:34:04.337Z,40.78
2023-04-05T16:36:31.138Z,41.36
2023-04-05T16:38:57.815Z,41.23
2023-04-05T16:41:24.506Z,41.48
2023-04-05T16:43:52.265Z,41.18
2023-04-05T16:46:19.061Z,41.70
2023-04-05T16:48:46.194Z,41.29
2023-04-05T16:51:13.179Z,40.98
2023-04-05T16:53:39.894Z,41.56
2023-04-05T16:56:06.596Z,41.87
2023-04-05T16:58:33.355Z,41.80
2023-04-05T17:01:00.478Z,42.12
2023-04-05T17:03:27.489Z,42.20
2023-04-05T17:05:54.194Z,42.25
2023-04-05T17:08:20.968Z,42.84
2023-04-05T17:10:47.717Z,42.79
2023-04-05T17:13:15.062Z,43.16
2023-04-05T17:15:42.146Z,43.57
2023-04-05T17:18:08.992Z,43.83
2023-04-05T17:20:36.055Z,44.40
2023-04-05T17:23:02.752Z,44.90
2023-04-05T17:25:31.322Z,45.23
2023-04-05T17:27:58.009Z,45.33
2023-04-05T17:30:25.412Z,45.31
2023-04-05T17:32:52.838Z,45.40
2023-04-05T17:35:19.643Z,45.25
2023-04-05T17:37:47.648Z,44.76
2023-04-05T17:40:15.478Z,45.22
2023-04-05T17:42:42.234Z,45.62
2023-04-05T17:45:09.252Z,45.90
2023-04-05T17:47:36.240Z,46.17
2023-04-05T17:50:03.144Z,45.88
2023-04-05T17:52:29.916Z,47.00
2023-04-05T17:54:56.541Z,46.88
2023-04-05T17:57:23.436Z,47.00
2023-04-05T17:59:50.152Z,46.65
2023-04-05T18:02:16.965Z,46.58
2023-04-05T18:04:44.380Z,46.60
2023-04-05T18:07:11.110Z,47.44
2023-04-05T18:09:41.841Z,47.68
2023-04-05T18:12:09.415Z,47.90
2023-04-05T18:14:39.012Z,48.23
2023-04-05T18:17:07.441Z,48.51
2023-04-05T18:19:34.641Z,48.81
2023-04-05T18:22:01.474Z,48.64
2023-04-05T18:24:29.367Z,48.74
2023-04-05T18:26:56.294Z,48.67
2023-04-05T18:29:28.159Z,48.36
2023-04-05T18:31:56.203Z,48.80
2023-04-05T18:34:24.192Z,48.93
2023-04-05T18:36:51.318Z,48.63
2023-04-05T18:39:20.061Z,48.96
2023-04-05T18:41:47.151Z,49.23
2023-04-05T18:44:13.862Z,49.47
2023-04-05T18:46:40.921Z,49.51
2023-04-05T18:49:07.851Z,49.93
2023-04-05T18:51:34.737Z,50.42
2023-04-05T18:54:02.878Z,51.59
2023-04-05T18:56:29.591Z,52.88
2023-04-05T18:58:56.320Z,55.80
2023-04-05T19:01:23.426Z,57.57
2023-04-05T19:03:50.981Z,57.80
2023-04-05T19:06:17.847Z,59.29
2023-04-05T19:08:44.651Z,59.28
2023-04-05T19:11:13.750Z,58.00
2023-04-05T19:13:41.394Z,57.72
2023-04-05T19:16:08.245Z,56.08
2023-04-05T19:18:35.294Z,54.96
2023-04-05T19:21:02.029Z,54.74
2023-04-05T19:23:28.951Z,54.49
2023-04-05T19:25:56.626Z,55.42
2023-04-05T19:28:24.100Z,56.30
2023-04-05T19:30:51.050Z,57.79
2023-04-05T19:33:19.614Z,58.55
2023-04-05T19:35:47.921Z,60.32
2023-04-05T19:38:14.900Z,62.08
2023-04-05T19:40:42.343Z,62.88
2023-04-05T19:43:10.083Z,63.88
2023-04-05T19:45:37.075Z,64.99
2023-04-05T19:48:27.778Z,65.33
2023-04-05T19:51:02.105Z,64.99
2023-04-05T19:53:48.579Z,64.47
2023-04-05T19:56:21.904Z,64.06
2023-04-05T19:58:53.685Z,64.03
2023-04-05T20:01:38.737Z,63.39
2023-04-05T20:04:13.037Z,62.79
2023-04-05T20:06:45.136Z,62.12
2023-04-05T20:09:17.116Z,62.05
2023-04-05T20:11:53.714Z,61.94
2023-04-05T20:14:26.292Z,62.36
2023-04-05T20:16:52.957Z,62.64
2023-04-05T20:19:27.878Z,62.90
2023-04-05T20:21:54.626Z,62.87
2023-04-05T20:24:24.375Z,63.27
2023-04-05T20:26:56.922Z,63.61
2023-04-05T20:29:29.194Z,64.56
2023-04-05T20:31:56.152Z,64.76
2023-04-05T20:34:34.539Z,65.50
2023-04-05T20:37:03.978Z,66.22
2023-04-05T20:39:31.510Z,65.63
2023-04-05T20:41:59.568Z,66.62
2023-04-05T20:44:26.665Z,66.75
2023-04-05T20:46:56.115Z,67.11
2023-04-05T20:49:25.420Z,67.35
2023-04-05T20:51:54.787Z,67.13
2023-04-05T20:54:21.947Z,67.00
2023-04-05T20:56:48.600Z,67.16
2023-04-05T20:59:15.748Z,67.66
2023-04-05T21:01:43.106Z,68.34
2023-04-05T21:04:10.382Z,67.80
2023-04-05T21:06:37.476Z,67.72
2023-04-05T21:09:04.752Z,68.24
2023-04-05T21:11:31.767Z,69.23
2023-04-05T21:13:58.633Z,69.27
2023-04-05T21:16:25.560Z,68.79
2023-04-05T21:18:52.475Z,68.69
2023-04-05T21:21:19.119Z,68.80
2023-04-05T21:23:45.933Z,68.82
2023-04-05T21:26:12.827Z,70.25
2023-04-05T21:28:39.478Z,70.63
2023-04-05T21:31:06.482Z,70.42
2023-04-05T21:33:33.263Z,70.29
2023-04-05T21:35:59.946Z,70.51
2023-04-05T21:38:27.233Z,70.64
2023-04-05T21:40:55.432Z,70.26
2023-04-05T21:43:22.333Z,70.33
2023-04-05T21:45:49.043Z,69.60
2023-04-05T21:48:15.760Z,69.65
2023-04-05T21:50:42.392Z,69.84
2023-04-05T21:53:09.900Z,69.80
2023-04-05T21:55:36.811Z,69.48
2023-04-05T21:58:03.468Z,69.53
2023-04-05T22:00:30.416Z,69.35
2023-04-05T22:02:57.566Z,68.95
2023-04-05T22:05:36.167Z,67.84
2023-04-05T22:08:06.015Z,67.98
2023-04-05T22:10:33.173Z,68.12
2023-04-05T22:12:59.982Z,68.12
2023-04-05T22:15:26.636Z,68.98
2023-04-05T22:17:53.360Z,69.46
2023-04-05T22:20:20.269Z,69.93
2023-04-05T22:22:47.254Z,70.59
2023-04-05T22:25:13.967Z,71.37
2023-04-05T22:27:40.676Z,71.65
2023-04-05T22:30:08.181Z,72.29
2023-04-05T22:32:35.699Z,71.89
2023-04-05T22:35:04.293Z,71.82
2023-04-05T22:37:35.741Z,72.47
2023-04-05T22:40:04.627Z,73.19
2023-04-05T22:42:31.643Z,72.60
2023-04-05T22:44:58.496Z,73.74
2023-04-05T22:47:25.701Z,73.33
2023-04-05T22:49:52.714Z,73.65
2023-04-05T22:52:19.604Z,74.08
2023-04-05T22:54:46.515Z,74.43
2023-04-05T22:57:13.450Z,74.89
2023-04-05T22:59:40.568Z,75.34
2023-04-05T23:02:07.403Z,75.31
2023-04-05T23:04:34.077Z,74.97
2023-04-05T23:07:00.894Z,75.02
2023-04-05T23:09:27.740Z,75.35
2023-04-05T23:11:54.461Z,75.64
2023-04-05T23:14:21.775Z,75.24
2023-04-05T23:16:48.469Z,74.79
2023-04-05T23:19:15.217Z,75.29
2023-04-05T23:21:41.906Z,75.43
2023-04-05T23:24:10.746Z,75.41
2023-04-05T23:26:37.392Z,75.04
2023-04-05T23:29:04.072Z,74.36
2023-04-05T23:31:31.350Z,74.78
2023-04-05T23:33:58.112Z,75.17
2023-04-05T23:36:24.997Z,75.16
2023-04-05T23:38:51.796Z,74.58
2023-04-05T23:41:18.676Z,74.97
2023-04-05T23:43:46.107Z,75.14
2023-04-05T23:46:13.347Z,75.16
2023-04-05T23:48:40.213Z,76.03
2023-04-05T23:51:07.042Z,75.76
2023-04-05T23:53:33.851Z,76.17
2023-04-05T23:56:00.629Z,76.59
2023-04-05T23:58:28.216Z,76.67
